sensor_id;sensor_type;location;lat;lon;timestamp;P1;durP1;ratioP1;P2;durP2;ratioP2
16484;SDS011;8353;47.856;12.344;2022-08-21T00:00:42;0.93;;;0.93;;
16484;SDS011;8353;47.856;12.344;2022-08-21T00:03:33;1.25;;;0.70;;
16484;SDS011;8353;47.856;12.344;2022-08-21T00:06:22;0.70;;;0.70;;
16484;SDS011;8353;47.856;12.344;2022-08-21T00:09:10;1.20;;;1.10;;
16484;SDS011;8353;47.856;12.344;2022-08-21T00:12:01;0.80;;;0.80;;
16484;SDS011;8353;47.856;12.344;2022-08-21T00:14:51;0.90;;;0.90;;
16484;SDS011;8353;47.856;12.344;2022-08-21T00:17:39;0.95;;;0.95;;
16484;SDS011;8353;47.856;12.344;2022-08-21T00:20:26;1.00;;;0.85;;
16484;SDS011;8353;47.856;12.344;2022-08-21T00:23:16;0.88;;;0.88;;
16484;SDS011;8353;47.856;12.344;2022-08-21T00:26:06;0.70;;;0.70;;
16484;SDS011;8353;47.856;12.344;2022-08-21T00:28:53;0.75;;;0.75;;
16484;SDS011;8353;47.856;12.344;2022-08-21T00:31:41;0.95;;;0.90;;
16484;SDS011;8353;47.856;12.344;2022-08-21T00:34:29;1.13;;;1.02;;
16484;SDS011;8353;47.856;12.344;2022-08-21T00:37:16;1.05;;;1.02;;
16484;SDS011;8353;47.856;12.344;2022-08-21T00:40:05;1.10;;;1.00;;
16484;SDS011;8353;47.856;12.344;2022-08-21T00:42:55;0.85;;;0.70;;
16484;SDS011;8353;47.856;12.344;2022-08-21T00:45:43;1.67;;;0.90;;
16484;SDS011;8353;47.856;12.344;2022-08-21T00:48:31;1.10;;;1.05;;
16484;SDS011;8353;47.856;12.344;2022-08-21T00:51:21;1.30;;;1.20;;
16484;SDS011;8353;47.856;12.344;2022-08-21T00:54:12;0.90;;;0.90;;
16484;SDS011;8353;47.856;12.344;2022-08-21T00:57:04;0.90;;;0.90;;
16484;SDS011;8353;47.856;12.344;2022-08-21T01:00:00;0.68;;;0.68;;
16484;SDS011;8353;47.856;12.344;2022-08-21T01:03:00;1.60;;;0.90;;
16484;SDS011;8353;47.856;12.344;2022-08-21T01:05:52;0.70;;;0.70;;
16484;SDS011;8353;47.856;12.344;2022-08-21T01:08:40;0.77;;;0.70;;
16484;SDS011;8353;47.856;12.344;2022-08-21T01:11:27;0.70;;;0.70;;
16484;SDS011;8353;47.856;12.344;2022-08-21T01:14:19;0.63;;;0.63;;
16484;SDS011;8353;47.856;12.344;2022-08-21T01:17:06;1.30;;;0.80;;
16484;SDS011;8353;47.856;12.344;2022-08-21T01:19:56;0.70;;;0.70;;
16484;SDS011;8353;47.856;12.344;2022-08-21T01:22:45;0.55;;;0.55;;
16484;SDS011;8353;47.856;12.344;2022-08-21T01:25:33;1.35;;;0.80;;
16484;SDS011;8353;47.856;12.344;2022-08-21T01:28:24;0.93;;;0.93;;
16484;SDS011;8353;47.856;12.344;2022-08-21T01:31:13;0.73;;;0.73;;
16484;SDS011;8353;47.856;12.344;2022-08-21T01:34:04;1.30;;;0.90;;
16484;SDS011;8353;47.856;12.344;2022-08-21T01:36:54;1.65;;;0.93;;
16484;SDS011;8353;47.856;12.344;2022-08-21T01:39:43;1.95;;;1.00;;
16484;SDS011;8353;47.856;12.344;2022-08-21T01:42:31;0.80;;;0.80;;
16484;SDS011;8353;47.856;12.344;2022-08-21T01:45:18;0.73;;;0.73;;
16484;SDS011;8353;47.856;12.344;2022-08-21T01:48:06;1.55;;;0.98;;
16484;SDS011;8353;47.856;12.344;2022-08-21T01:50:53;1.50;;;0.75;;
16484;SDS011;8353;47.856;12.344;2022-08-21T01:53:45;1.42;;;1.13;;
16484;SDS011;8353;47.856;12.344;2022-08-21T01:57:03;0.65;;;0.65;;
16484;SDS011;8353;47.856;12.344;2022-08-21T02:00:21;0.60;;;0.60;;
16484;SDS011;8353;47.856;12.344;2022-08-21T02:03:39;0.88;;;0.80;;
16484;SDS011;8353;47.856;12.344;2022-08-21T02:06:55;0.90;;;0.70;;
16484;SDS011;8353;47.856;12.344;2022-08-21T02:10:12;1.98;;;1.20;;
16484;SDS011;8353;47.856;12.344;2022-08-21T02:13:31;0.80;;;0.80;;
16484;SDS011;8353;47.856;12.344;2022-08-21T02:16:48;2.95;;;1.17;;
16484;SDS011;8353;47.856;12.344;2022-08-21T02:20:05;1.30;;;1.20;;
16484;SDS011;8353;47.856;12.344;2022-08-21T02:23:23;1.80;;;1.02;;
16484;SDS011;8353;47.856;12.344;2022-08-21T02:26:40;0.80;;;0.80;;
16484;SDS011;8353;47.856;12.344;2022-08-21T02:29:57;1.60;;;1.50;;
16484;SDS011;8353;47.856;12.344;2022-08-21T02:33:14;1.17;;;1.08;;
16484;SDS011;8353;47.856;12.344;2022-08-21T02:36:31;1.45;;;1.35;;
16484;SDS011;8353;47.856;12.344;2022-08-21T02:39:48;0.90;;;0.90;;
16484;SDS011;8353;47.856;12.344;2022-08-21T02:43:05;0.90;;;0.90;;
16484;SDS011;8353;47.856;12.344;2022-08-21T02:46:22;1.00;;;1.00;;
16484;SDS011;8353;47.856;12.344;2022-08-21T02:49:40;2.30;;;1.02;;
16484;SDS011;8353;47.856;12.344;2022-08-21T02:52:57;1.20;;;1.10;;
16484;SDS011;8353;47.856;12.344;2022-08-21T15:26:49;1.85;;;1.67;;
16484;SDS011;8353;47.856;12.344;2022-08-21T15:29:37;2.15;;;2.05;;
16484;SDS011;8353;47.856;12.344;2022-08-21T15:32:24;1.63;;;1.52;;
16484;SDS011;8353;47.856;12.344;2022-08-21T15:35:14;2.13;;;1.92;;
16484;SDS011;8353;47.856;12.344;2022-08-21T15:38:02;2.33;;;1.98;;
16484;SDS011;8353;47.856;12.344;2022-08-21T15:40:49;1.98;;;1.88;;
16484;SDS011;8353;47.856;12.344;2022-08-21T15:43:40;1.92;;;1.83;;
16484;SDS011;8353;47.856;12.344;2022-08-21T15:46:30;2.42;;;2.22;;
16484;SDS011;8353;47.856;12.344;2022-08-21T15:49:18;2.30;;;2.20;;
16484;SDS011;8353;47.856;12.344;2022-08-21T15:52:05;2.42;;;2.20;;
16484;SDS011;8353;47.856;12.344;2022-08-21T15:54:51;1.73;;;1.63;;
16484;SDS011;8353;47.856;12.344;2022-08-21T15:57:42;2.55;;;2.35;;
16484;SDS011;8353;47.856;12.344;2022-08-21T16:00:32;2.53;;;2.33;;
16484;SDS011;8353;47.856;12.344;2022-08-21T16:03:21;2.47;;;2.25;;
16484;SDS011;8353;47.856;12.344;2022-08-21T16:06:08;2.75;;;2.50;;
16484;SDS011;8353;47.856;12.344;2022-08-21T16:08:55;2.58;;;2.40;;
16484;SDS011;8353;47.856;12.344;2022-08-21T16:11:42;2.58;;;2.08;;
16484;SDS011;8353;47.856;12.344;2022-08-21T16:14:29;2.30;;;2.15;;
16484;SDS011;8353;47.856;12.344;2022-08-21T16:17:19;2.40;;;1.98;;
16484;SDS011;8353;47.856;12.344;2022-08-21T16:20:11;2.00;;;1.80;;
16484;SDS011;8353;47.856;12.344;2022-08-21T16:22:58;3.00;;;2.80;;
16484;SDS011;8353;47.856;12.344;2022-08-21T16:25:45;2.58;;;2.30;;
16484;SDS011;8353;47.856;12.344;2022-08-21T16:28:33;2.38;;;2.17;;
16484;SDS011;8353;47.856;12.344;2022-08-21T16:31:22;2.40;;;2.20;;
16484;SDS011;8353;47.856;12.344;2022-08-21T16:34:12;2.13;;;2.03;;
16484;SDS011;8353;47.856;12.344;2022-08-21T16:37:04;1.90;;;1.80;;
16484;SDS011;8353;47.856;12.344;2022-08-21T16:39:51;3.28;;;3.08;;
16484;SDS011;8353;47.856;12.344;2022-08-21T16:42:39;3.03;;;2.20;;
16484;SDS011;8353;47.856;12.344;2022-08-21T16:45:27;2.35;;;2.20;;
16484;SDS011;8353;47.856;12.344;2022-08-21T16:48:14;2.58;;;2.38;;
16484;SDS011;8353;47.856;12.344;2022-08-21T16:51:03;2.00;;;1.90;;
16484;SDS011;8353;47.856;12.344;2022-08-21T16:53:50;2.47;;;2.22;;
16484;SDS011;8353;47.856;12.344;2022-08-21T16:56:37;2.42;;;2.25;;
16484;SDS011;8353;47.856;12.344;2022-08-21T16:59:25;2.75;;;2.55;;
16484;SDS011;8353;47.856;12.344;2022-08-21T17:02:16;2.10;;;2.00;;
16484;SDS011;8353;47.856;12.344;2022-08-21T17:05:09;1.90;;;1.80;;
16484;SDS011;8353;47.856;12.344;2022-08-21T17:07:58;2.58;;;2.25;;
16484;SDS011;8353;47.856;12.344;2022-08-21T17:10:46;2.30;;;1.90;;
16484;SDS011;8353;47.856;12.344;2022-08-21T17:13:34;3.75;;;2.92;;
16484;SDS011;8353;47.856;12.344;2022-08-21T17:16:21;1.85;;;1.75;;
16484;SDS011;8353;47.856;12.344;2022-08-21T17:19:08;2.13;;;2.03;;
16484;SDS011;8353;47.856;12.344;2022-08-21T17:21:57;2.65;;;2.40;;
16484;SDS011;8353;47.856;12.344;2022-08-21T17:24:45;2.00;;;1.90;;
16484;SDS011;8353;47.856;12.344;2022-08-21T17:27:32;2.83;;;2.63;;
16484;SDS011;8353;47.856;12.344;2022-08-21T17:30:19;1.80;;;1.70;;
16484;SDS011;8353;47.856;12.344;2022-08-21T17:33:06;2.10;;;1.70;;
16484;SDS011;8353;47.856;12.344;2022-08-21T17:35:53;2.88;;;2.17;;
16484;SDS011;8353;47.856;12.344;2022-08-21T17:38:40;2.10;;;1.90;;
16484;SDS011;8353;47.856;12.344;2022-08-21T17:41:28;2.20;;;1.90;;
16484;SDS011;8353;47.856;12.344;2022-08-21T17:44:15;1.90;;;1.80;;
16484;SDS011;8353;47.856;12.344;2022-08-21T17:47:04;1.88;;;1.77;;
16484;SDS011;8353;47.856;12.344;2022-08-21T17:49:52;2.35;;;1.90;;
16484;SDS011;8353;47.856;12.344;2022-08-21T17:52:39;2.63;;;2.42;;
16484;SDS011;8353;47.856;12.344;2022-08-21T17:55:28;2.30;;;2.20;;
16484;SDS011;8353;47.856;12.344;2022-08-21T17:58:20;2.70;;;2.50;;
16484;SDS011;8353;47.856;12.344;2022-08-21T18:01:07;1.90;;;1.80;;
16484;SDS011;8353;47.856;12.344;2022-08-21T18:04:22;3.40;;;3.10;;
16484;SDS011;8353;47.856;12.344;2022-08-21T18:07:09;2.58;;;2.38;;
16484;SDS011;8353;47.856;12.344;2022-08-21T18:09:56;2.25;;;2.15;;
16484;SDS011;8353;47.856;12.344;2022-08-21T18:12:43;2.10;;;2.00;;
16484;SDS011;8353;47.856;12.344;2022-08-21T18:15:32;2.60;;;1.85;;
16484;SDS011;8353;47.856;12.344;2022-08-21T18:18:20;2.00;;;1.90;;
16484;SDS011;8353;47.856;12.344;2022-08-21T18:21:09;2.92;;;2.67;;
16484;SDS011;8353;47.856;12.344;2022-08-21T18:23:56;4.93;;;2.80;;
16484;SDS011;8353;47.856;12.344;2022-08-21T18:26:42;2.05;;;1.95;;
16484;SDS011;8353;47.856;12.344;2022-08-21T18:29:29;2.35;;;2.15;;
16484;SDS011;8353;47.856;12.344;2022-08-21T18:32:19;2.65;;;2.33;;
16484;SDS011;8353;47.856;12.344;2022-08-21T18:35:09;2.40;;;2.25;;
16484;SDS011;8353;47.856;12.344;2022-08-21T18:37:58;3.70;;;2.90;;
16484;SDS011;8353;47.856;12.344;2022-08-21T18:40:47;2.55;;;2.35;;
16484;SDS011;8353;47.856;12.344;2022-08-21T18:43:36;2.25;;;1.77;;
16484;SDS011;8353;47.856;12.344;2022-08-21T18:46:23;5.00;;;2.92;;
16484;SDS011;8353;47.856;12.344;2022-08-21T18:49:11;2.38;;;2.25;;
16484;SDS011;8353;47.856;12.344;2022-08-21T18:51:58;2.10;;;2.00;;
16484;SDS011;8353;47.856;12.344;2022-08-21T18:54:45;2.13;;;2.03;;
16484;SDS011;8353;47.856;12.344;2022-08-21T18:57:32;2.20;;;2.03;;
16484;SDS011;8353;47.856;12.344;2022-08-21T19:00:22;2.33;;;2.13;;
16484;SDS011;8353;47.856;12.344;2022-08-21T19:03:11;3.03;;;2.83;;
16484;SDS011;8353;47.856;12.344;2022-08-21T19:05:59;2.47;;;2.28;;
16484;SDS011;8353;47.856;12.344;2022-08-21T19:08:46;3.03;;;2.35;;
16484;SDS011;8353;47.856;12.344;2022-08-21T19:11:33;2.72;;;2.42;;
16484;SDS011;8353;47.856;12.344;2022-08-21T19:14:21;2.15;;;2.05;;
16484;SDS011;8353;47.856;12.344;2022-08-21T19:17:08;3.28;;;2.88;;
16484;SDS011;8353;47.856;12.344;2022-08-21T19:19:55;2.65;;;2.45;;
16484;SDS011;8353;47.856;12.344;2022-08-21T19:22:49;3.85;;;3.55;;
16484;SDS011;8353;47.856;12.344;2022-08-21T19:25:36;3.10;;;2.90;;
16484;SDS011;8353;47.856;12.344;2022-08-21T19:28:26;3.40;;;3.10;;
16484;SDS011;8353;47.856;12.344;2022-08-21T19:31:15;3.08;;;2.70;;
16484;SDS011;8353;47.856;12.344;2022-08-21T19:34:05;3.40;;;3.10;;
16484;SDS011;8353;47.856;12.344;2022-08-21T19:36:53;3.35;;;3.05;;
16484;SDS011;8353;47.856;12.344;2022-08-21T19:39:42;2.83;;;2.63;;
16484;SDS011;8353;47.856;12.344;2022-08-21T19:42:29;4.22;;;3.83;;
16484;SDS011;8353;47.856;12.344;2022-08-21T19:45:16;2.50;;;2.30;;
16484;SDS011;8353;47.856;12.344;2022-08-21T19:48:03;2.85;;;2.65;;
16484;SDS011;8353;47.856;12.344;2022-08-21T19:50:50;2.42;;;2.22;;
16484;SDS011;8353;47.856;12.344;2022-08-21T19:53:36;3.20;;;2.90;;
16484;SDS011;8353;47.856;12.344;2022-08-21T19:56:25;2.40;;;2.20;;
16484;SDS011;8353;47.856;12.344;2022-08-21T19:59:14;4.07;;;3.42;;
16484;SDS011;8353;47.856;12.344;2022-08-21T20:02:02;3.05;;;2.85;;
16484;SDS011;8353;47.856;12.344;2022-08-21T20:04:49;3.78;;;3.38;;
16484;SDS011;8353;47.856;12.344;2022-08-21T20:07:36;2.95;;;2.70;;
16484;SDS011;8353;47.856;12.344;2022-08-21T20:10:23;2.78;;;2.50;;
16484;SDS011;8353;47.856;12.344;2022-08-21T20:13:11;3.22;;;2.92;;
16484;SDS011;8353;47.856;12.344;2022-08-21T20:15:58;2.20;;;2.10;;
16484;SDS011;8353;47.856;12.344;2022-08-21T20:18:46;2.22;;;2.10;;
16484;SDS011;8353;47.856;12.344;2022-08-21T20:21:34;2.30;;;2.10;;
16484;SDS011;8353;47.856;12.344;2022-08-21T20:24:21;2.20;;;2.10;;
16484;SDS011;8353;47.856;12.344;2022-08-21T20:27:09;2.35;;;2.15;;
16484;SDS011;8353;47.856;12.344;2022-08-21T20:30:03;2.55;;;2.35;;
16484;SDS011;8353;47.856;12.344;2022-08-21T20:32:51;2.55;;;2.35;;
16484;SDS011;8353;47.856;12.344;2022-08-21T20:35:38;3.30;;;3.03;;
16484;SDS011;8353;47.856;12.344;2022-08-21T20:38:27;2.65;;;2.00;;
16484;SDS011;8353;47.856;12.344;2022-08-21T20:41:14;3.03;;;2.83;;
16484;SDS011;8353;47.856;12.344;2022-08-21T20:44:02;2.70;;;2.50;;
16484;SDS011;8353;47.856;12.344;2022-08-21T20:46:51;2.65;;;2.45;;
16484;SDS011;8353;47.856;12.344;2022-08-21T20:49:40;3.25;;;2.72;;
16484;SDS011;8353;47.856;12.344;2022-08-21T20:52:31;3.45;;;3.15;;
16484;SDS011;8353;47.856;12.344;2022-08-21T20:55:20;2.85;;;2.65;;
16484;SDS011;8353;47.856;12.344;2022-08-21T20:58:12;3.67;;;3.28;;
16484;SDS011;8353;47.856;12.344;2022-08-21T21:01:13;3.72;;;3.42;;
16484;SDS011;8353;47.856;12.344;2022-08-21T21:04:02;3.08;;;2.38;;
16484;SDS011;8353;47.856;12.344;2022-08-21T21:06:53;4.57;;;3.17;;
16484;SDS011;8353;47.856;12.344;2022-08-21T21:09:41;2.80;;;2.60;;
16484;SDS011;8353;47.856;12.344;2022-08-21T21:12:34;2.88;;;2.65;;
16484;SDS011;8353;47.856;12.344;2022-08-21T21:15:27;2.60;;;2.40;;
16484;SDS011;8353;47.856;12.344;2022-08-21T21:18:17;2.58;;;2.38;;
16484;SDS011;8353;47.856;12.344;2022-08-21T21:21:12;2.60;;;2.40;;
16484;SDS011;8353;47.856;12.344;2022-08-21T21:24:06;3.40;;;3.20;;
16484;SDS011;8353;47.856;12.344;2022-08-21T21:26:58;2.92;;;2.72;;
16484;SDS011;8353;47.856;12.344;2022-08-21T21:29:52;2.78;;;2.50;;
16484;SDS011;8353;47.856;12.344;2022-08-21T21:32:44;3.08;;;2.78;;
16484;SDS011;8353;47.856;12.344;2022-08-21T21:35:33;2.75;;;2.55;;
16484;SDS011;8353;47.856;12.344;2022-08-21T21:38:28;2.17;;;2.00;;
16484;SDS011;8353;47.856;12.344;2022-08-21T21:41:22;2.83;;;2.35;;
16484;SDS011;8353;47.856;12.344;2022-08-21T21:44:22;2.40;;;2.30;;
16484;SDS011;8353;47.856;12.344;2022-08-21T21:47:22;3.30;;;2.90;;
16484;SDS011;8353;47.856;12.344;2022-08-21T21:50:25;2.40;;;2.20;;
16484;SDS011;8353;47.856;12.344;2022-08-21T21:53:31;2.60;;;2.40;;
16484;SDS011;8353;47.856;12.344;2022-08-21T21:56:31;2.50;;;2.30;;
16484;SDS011;8353;47.856;12.344;2022-08-21T21:59:30;2.30;;;2.10;;
16484;SDS011;8353;47.856;12.344;2022-08-21T22:02:31;3.65;;;3.17;;
16484;SDS011;8353;47.856;12.344;2022-08-21T22:05:31;2.63;;;2.42;;
16484;SDS011;8353;47.856;12.344;2022-08-21T22:08:43;2.90;;;2.60;;
16484;SDS011;8353;47.856;12.344;2022-08-21T22:11:39;2.55;;;2.35;;
16484;SDS011;8353;47.856;12.344;2022-08-21T22:14:37;2.90;;;2.70;;
16484;SDS011;8353;47.856;12.344;2022-08-21T22:17:31;3.38;;;3.08;;
16484;SDS011;8353;47.856;12.344;2022-08-21T22:20:24;3.58;;;3.28;;
16484;SDS011;8353;47.856;12.344;2022-08-21T22:23:17;2.45;;;2.25;;
16484;SDS011;8353;47.856;12.344;2022-08-21T22:26:08;3.05;;;2.80;;
16484;SDS011;8353;47.856;12.344;2022-08-21T22:28:58;3.38;;;3.08;;
16484;SDS011;8353;47.856;12.344;2022-08-21T22:31:59;2.80;;;2.60;;
16484;SDS011;8353;47.856;12.344;2022-08-21T22:34:58;2.72;;;2.53;;
16484;SDS011;8353;47.856;12.344;2022-08-21T22:37:48;3.03;;;2.45;;
16484;SDS011;8353;47.856;12.344;2022-08-21T22:40:36;2.28;;;2.17;;
16484;SDS011;8353;47.856;12.344;2022-08-21T22:43:25;2.55;;;2.35;;
16484;SDS011;8353;47.856;12.344;2022-08-21T22:46:11;2.40;;;2.20;;
16484;SDS011;8353;47.856;12.344;2022-08-21T22:49:08;2.75;;;2.55;;
16484;SDS011;8353;47.856;12.344;2022-08-21T22:52:07;4.82;;;3.53;;
16484;SDS011;8353;47.856;12.344;2022-08-21T22:54:57;2.58;;;2.38;;
16484;SDS011;8353;47.856;12.344;2022-08-21T22:57:47;2.70;;;2.50;;
16484;SDS011;8353;47.856;12.344;2022-08-21T23:00:50;3.22;;;3.03;;
16484;SDS011;8353;47.856;12.344;2022-08-21T23:03:41;4.03;;;3.63;;
16484;SDS011;8353;47.856;12.344;2022-08-21T23:06:32;2.55;;;2.38;;
16484;SDS011;8353;47.856;12.344;2022-08-21T23:09:27;3.85;;;3.55;;
16484;SDS011;8353;47.856;12.344;2022-08-21T23:12:22;3.20;;;2.80;;
16484;SDS011;8353;47.856;12.344;2022-08-21T23:15:11;2.60;;;2.40;;
16484;SDS011;8353;47.856;12.344;2022-08-21T23:18:02;2.70;;;2.50;;
16484;SDS011;8353;47.856;12.344;2022-08-21T23:20:56;3.65;;;3.10;;
16484;SDS011;8353;47.856;12.344;2022-08-21T23:23:53;2.72;;;2.53;;
16484;SDS011;8353;47.856;12.344;2022-08-21T23:26:53;3.65;;;2.38;;
16484;SDS011;8353;47.856;12.344;2022-08-21T23:29:54;2.88;;;2.67;;
16484;SDS011;8353;47.856;12.344;2022-08-21T23:32:51;3.03;;;2.83;;
16484;SDS011;8353;47.856;12.344;2022-08-21T23:36:01;4.43;;;2.92;;
16484;SDS011;8353;47.856;12.344;2022-08-21T23:39:19;2.78;;;2.58;;
16484;SDS011;8353;47.856;12.344;2022-08-21T23:42:21;4.20;;;3.40;;
16484;SDS011;8353;47.856;12.344;2022-08-21T23:45:21;3.03;;;2.72;;
16484;SDS011;8353;47.856;12.344;2022-08-21T23:48:19;2.58;;;2.38;;
16484;SDS011;8353;47.856;12.344;2022-08-21T23:51:15;2.50;;;2.30;;
16484;SDS011;8353;47.856;12.344;2022-08-21T23:54:08;3.30;;;3.10;;
16484;SDS011;8353;47.856;12.344;2022-08-21T23:57:05;2.63;;;2.42;;
